createdAt,value
2023-05-10T00:01:03.896Z,18.20
2023-05-10T00:04:03.367Z,14.20
2023-05-10T00:06:02.528Z,10.20
2023-05-10T00:07:35.268Z,7.70
2023-05-10T00:13:07.500Z,8.10
2023-05-10T00:18:07.980Z,8.20
2023-05-10T00:22:04.756Z,7.20
2023-05-10T00:23:33.997Z,7.10
2023-05-10T00:25:25.431Z,7.30
2023-05-10T00:27:27.999Z,7.40
2023-05-10T00:28:55.958Z,7.50
2023-05-10T00:31:17.220Z,7.70
2023-05-10T00:33:17.761Z,8.00
2023-05-10T00:34:45.928Z,7.70
2023-05-10T00:35:45.893Z,7.90
2023-05-10T00:37:54.476Z,6.80
2023-05-10T00:41:42.204Z,8.20
2023-05-10T00:44:14.313Z,7.40
2023-05-10T00:46:14.085Z,8.30
2023-05-10T00:48:52.228Z,7.90
2023-05-10T00:52:12.051Z,8.30
2023-05-10T00:56:30.045Z,9.30
2023-05-10T00:59:08.084Z,8.70
2023-05-10T01:00:58.848Z,9.30
2023-05-10T01:02:58.517Z,9.30
2023-05-10T01:04:28.149Z,9.70
2023-05-10T01:05:57.280Z,9.80
2023-05-10T01:09:09.902Z,10.50
2023-05-10T01:11:42.162Z,10.60
2023-05-10T01:14:21.593Z,11.20
2023-05-10T01:17:33.495Z,11.00
2023-05-10T01:20:52.535Z,11.30
2023-05-10T01:23:21.836Z,11.40
2023-05-10T01:27:50.468Z,11.30
2023-05-10T01:37:57.256Z,12.60
2023-05-10T01:40:34.548Z,13.30
2023-05-10T01:42:26.067Z,13.60
2023-05-10T01:46:24.325Z,13.40
2023-05-10T01:47:53.902Z,17.20
2023-05-10T01:49:43.785Z,13.90
2023-05-10T01:51:13.278Z,15.10
2023-05-10T01:54:44.398Z,17.50
2023-05-10T01:56:14.100Z,16.20
2023-05-10T01:58:03.289Z,15.80
2023-05-10T02:00:34.954Z,17.40
2023-05-10T02:02:42.172Z,17.60
2023-05-10T02:05:46.481Z,15.00
2023-05-10T02:07:15.765Z,17.20
2023-05-10T02:08:59.056Z,17.80
2023-05-10T02:10:34.048Z,15.70
2023-05-10T02:12:39.323Z,17.00
2023-05-10T02:13:38.468Z,16.30
2023-05-10T02:14:38.477Z,18.50
2023-05-10T02:23:51.443Z,16.30
2023-05-10T02:26:57.004Z,19.60
2023-05-10T02:31:04.120Z,16.20
2023-05-10T02:36:49.587Z,17.30
2023-05-10T02:38:19.723Z,16.40
2023-05-10T02:41:04.183Z,15.50
2023-05-10T02:43:57.292Z,19.80
2023-05-10T02:47:06.140Z,15.60
2023-05-10T02:48:45.632Z,19.10
2023-05-10T02:51:32.996Z,19.60
2023-05-10T02:53:21.821Z,18.00
2023-05-10T02:55:53.076Z,16.90
2023-05-10T03:04:09.836Z,18.20
2023-05-10T03:05:40.373Z,20.10
2023-05-10T03:07:30.391Z,22.60
2023-05-10T03:09:30.251Z,22.50
2023-05-10T03:14:46.956Z,22.60
2023-05-10T03:20:17.164Z,24.90
2023-05-10T03:24:02.667Z,24.80
2023-05-10T03:30:43.456Z,26.30
2023-05-10T03:32:14.295Z,28.90
2023-05-10T03:36:40.413Z,32.50
2023-05-10T03:38:10.303Z,39.20
2023-05-10T03:39:39.517Z,39.20
2023-05-10T03:43:59.222Z,41.30
2023-05-10T03:45:27.000Z,43.70
2023-05-10T03:47:27.150Z,44.00
2023-05-10T03:50:49.430Z,44.70
2023-05-10T03:52:50.200Z,53.00
2023-05-10T03:56:40.337Z,62.90
2023-05-10T03:58:09.242Z,58.50
2023-05-10T04:02:16.987Z,59.80
2023-05-10T04:05:34.214Z,57.30
2023-05-10T04:09:27.174Z,59.10
2023-05-10T04:10:57.057Z,59.20
2023-05-10T04:12:28.934Z,52.90
2023-05-10T04:14:24.834Z,65.40
2023-05-10T04:17:37.024Z,62.80
2023-05-10T04:19:05.239Z,54.30
2023-05-10T04:20:51.961Z,62.20
2023-05-10T04:26:20.555Z,69.00
2023-05-10T04:27:50.470Z,65.60
2023-05-10T04:29:20.484Z,60.70
2023-05-10T04:33:39.903Z,64.00
2023-05-10T04:36:08.919Z,66.50
2023-05-10T04:40:17.801Z,74.30
2023-05-10T04:44:47.640Z,75.50
2023-05-10T04:47:12.715Z,80.70
2023-05-10T04:49:02.908Z,76.10
2023-05-10T04:51:32.794Z,78.20
2023-05-10T04:54:04.663Z,73.90
2023-05-10T04:56:23.592Z,83.70
2023-05-10T05:00:11.405Z,80.00
2023-05-10T05:01:41.938Z,77.90
2023-05-10T05:04:52.427Z,84.30
2023-05-10T05:06:21.327Z,82.90
2023-05-10T05:07:51.264Z,81.20
2023-05-10T05:10:11.806Z,83.80
2023-05-10T05:11:41.690Z,85.40
2023-05-10T05:13:10.641Z,86.30
2023-05-10T05:15:58.171Z,97.60
2023-05-10T05:19:18.682Z,95.50
2023-05-10T05:23:19.132Z,92.10
2023-05-10T05:27:20.253Z,95.50
2023-05-10T05:30:45.441Z,92.50
2023-05-10T05:31:43.727Z,98.00
2023-05-10T05:33:06.445Z,97.80
2023-05-10T05:33:43.509Z,101.40
2023-05-10T05:35:22.327Z,95.30
2023-05-10T05:40:42.042Z,93.10
2023-05-10T05:43:29.944Z,97.30
2023-05-10T05:46:12.373Z,87.90
2023-05-10T05:49:58.487Z,90.90
2023-05-10T05:53:30.245Z,90.60
2023-05-10T05:54:58.633Z,90.70
2023-05-10T05:59:37.540Z,88.90
2023-05-10T06:01:09.189Z,81.10
2023-05-10T06:05:25.251Z,80.40
2023-05-10T06:10:46.373Z,77.20
2023-05-10T06:14:51.155Z,80.40
2023-05-10T06:18:28.283Z,73.30
2023-05-10T06:21:11.781Z,72.30
2023-05-10T06:22:41.265Z,74.10
2023-05-10T06:24:11.836Z,72.30
2023-05-10T06:26:27.745Z,71.50
2023-05-10T06:27:57.714Z,72.40
2023-05-10T06:34:54.367Z,77.10
2023-05-10T06:37:25.071Z,68.80
2023-05-10T06:39:12.335Z,83.80
2023-05-10T06:40:42.699Z,73.00
2023-05-10T06:42:12.333Z,72.10
2023-05-10T06:45:14.488Z,78.70
2023-05-10T06:49:04.634Z,73.80
2023-05-10T06:52:20.519Z,73.40
2023-05-10T06:55:49.260Z,70.30
2023-05-10T06:57:31.177Z,69.30
2023-05-10T06:58:50.274Z,67.10
2023-05-10T07:00:49.102Z,72.00
2023-05-10T07:03:09.666Z,72.00
2023-05-10T07:07:50.970Z,69.60
2023-05-10T07:10:38.711Z,69.10
2023-05-10T07:12:09.563Z,69.90
2023-05-10T07:14:28.660Z,64.10
2023-05-10T07:17:21.120Z,64.30
2023-05-10T07:19:40.417Z,67.20
2023-05-10T07:20:50.252Z,69.40
2023-05-10T07:23:45.256Z,62.50
2023-05-10T07:27:11.212Z,59.60
2023-05-10T07:29:40.940Z,60.40
2023-05-10T07:31:07.942Z,62.80
2023-05-10T07:32:40.751Z,58.80
2023-05-10T07:34:05.733Z,65.60
2023-05-10T07:35:36.608Z,63.20
2023-05-10T07:38:40.903Z,57.70
2023-05-10T07:40:28.742Z,60.30
2023-05-10T07:43:18.305Z,54.30
2023-05-10T07:45:37.222Z,55.00
2023-05-10T07:50:37.229Z,44.90
2023-05-10T07:52:24.043Z,47.90
2023-05-10T07:53:53.979Z,44.50
2023-05-10T07:56:14.578Z,51.80
2023-05-10T07:58:22.091Z,42.80
2023-05-10T08:00:41.928Z,43.00
2023-05-10T08:02:12.915Z,44.30
2023-05-10T08:04:01.910Z,40.60
2023-05-10T08:06:17.438Z,37.90
2023-05-10T08:09:40.500Z,38.70
2023-05-10T08:11:35.455Z,39.30
2023-05-10T08:15:32.962Z,33.80
2023-05-10T08:19:09.006Z,34.90
2023-05-10T08:21:09.385Z,36.50
2023-05-10T08:24:00.911Z,42.70
2023-05-10T08:30:59.543Z,43.20
2023-05-10T08:35:35.484Z,44.30
2023-05-10T08:38:50.325Z,38.50
2023-05-10T08:40:19.204Z,37.30
2023-05-10T08:42:21.931Z,42.80
2023-05-10T08:47:03.348Z,41.50
2023-05-10T08:52:28.876Z,40.90
2023-05-10T08:56:30.673Z,43.30
2023-05-10T08:58:22.571Z,41.60
2023-05-10T09:00:13.510Z,41.60
2023-05-10T09:03:20.734Z,34.70
2023-05-10T09:04:49.722Z,34.20
2023-05-10T09:09:19.100Z,35.80
2023-05-10T09:11:05.925Z,37.70
2023-05-10T09:13:26.475Z,41.20
2023-05-10T09:17:32.394Z,36.80
2023-05-10T09:21:25.974Z,43.50
2023-05-10T09:23:51.406Z,41.70
2023-05-10T09:25:52.110Z,37.90
2023-05-10T09:27:42.074Z,42.00
2023-05-10T09:31:02.297Z,40.20
2023-05-10T09:33:28.298Z,38.10
2023-05-10T09:36:56.217Z,41.50
2023-05-10T09:38:44.081Z,45.90
2023-05-10T09:40:12.962Z,39.70
2023-05-10T09:42:17.626Z,40.30
2023-05-10T09:44:03.793Z,44.60
2023-05-10T09:48:27.803Z,42.40
2023-05-10T09:53:55.848Z,35.10
2023-05-10T09:55:26.666Z,36.10
2023-05-10T09:57:46.305Z,32.60
2023-05-10T10:00:53.528Z,36.10
2023-05-10T10:03:53.119Z,38.40
2023-05-10T10:06:46.321Z,32.60
2023-05-10T10:12:51.436Z,27.30
2023-05-10T10:15:21.018Z,28.00
2023-05-10T10:17:40.181Z,29.50
2023-05-10T10:19:10.988Z,29.30
2023-05-10T10:20:11.745Z,28.60
2023-05-10T10:21:29.965Z,28.50
2023-05-10T10:22:09.020Z,27.00
2023-05-10T10:24:59.523Z,27.40
2023-05-10T10:28:17.902Z,27.90
2023-05-10T10:31:39.677Z,31.40
2023-05-10T10:35:16.220Z,31.50
2023-05-10T10:36:47.030Z,34.20
2023-05-10T10:38:46.098Z,35.20
2023-05-10T10:45:32.468Z,32.20
2023-05-10T10:47:04.395Z,30.10
2023-05-10T10:54:05.565Z,26.70
2023-05-10T10:55:33.630Z,28.90
2023-05-10T10:57:55.396Z,29.20
2023-05-10T10:59:23.454Z,25.20
2023-05-10T11:01:15.708Z,26.10
2023-05-10T11:02:45.388Z,23.80
2023-05-10T11:04:43.674Z,24.50
2023-05-10T11:07:55.179Z,24.50
2023-05-10T11:09:21.096Z,25.20
2023-05-10T11:10:50.819Z,25.20
2023-05-10T11:14:28.295Z,22.30
2023-05-10T11:16:24.760Z,22.90
2023-05-10T11:19:16.598Z,16.50
2023-05-10T11:20:44.618Z,19.40
2023-05-10T11:22:16.249Z,19.40
2023-05-10T11:23:44.460Z,19.10
2023-05-10T11:27:02.039Z,18.70
2023-05-10T11:33:48.307Z,23.50
2023-05-10T11:36:05.107Z,19.90
2023-05-10T11:37:52.981Z,17.00
2023-05-10T11:40:21.522Z,18.70
2023-05-10T11:41:53.425Z,18.50
2023-05-10T11:43:45.092Z,19.30
2023-05-10T11:45:30.988Z,16.30
2023-05-10T11:47:00.923Z,20.80
2023-05-10T11:48:29.924Z,19.10
2023-05-10T11:50:22.267Z,18.30
2023-05-10T11:51:30.711Z,17.30
2023-05-10T11:52:59.879Z,18.20
2023-05-10T11:54:59.843Z,18.20
2023-05-10T11:56:31.496Z,17.40
2023-05-10T11:57:59.749Z,18.60
2023-05-10T11:58:58.136Z,19.00
2023-05-10T11:59:58.056Z,16.30
2023-05-10T12:01:28.250Z,13.70
2023-05-10T12:02:56.359Z,12.90
2023-05-10T12:05:30.996Z,17.60
2023-05-10T12:07:33.032Z,12.90
2023-05-10T12:10:53.545Z,16.40
2023-05-10T12:12:55.550Z,16.10
2023-05-10T12:21:49.334Z,19.70
2023-05-10T12:29:13.215Z,14.50
2023-05-10T12:30:42.197Z,19.30
2023-05-10T12:33:10.252Z,16.30
2023-05-10T12:35:58.872Z,16.50
2023-05-10T12:38:47.766Z,15.00
2023-05-10T12:41:07.217Z,13.50
2023-05-10T12:45:25.641Z,13.80
2023-05-10T12:47:25.629Z,12.30
2023-05-10T12:50:44.784Z,11.20
2023-05-10T12:52:20.925Z,14.70
2023-05-10T12:55:28.327Z,11.30
2023-05-10T12:58:31.527Z,12.40
2023-05-10T13:02:47.477Z,11.20
2023-05-10T13:04:48.762Z,12.40
2023-05-10T13:10:21.997Z,15.00
2023-05-10T13:14:10.840Z,14.90
2023-05-10T13:17:22.601Z,13.20
2023-05-10T13:19:42.280Z,13.80
2023-05-10T13:22:11.671Z,15.80
2023-05-10T13:25:29.627Z,13.60
2023-05-10T13:27:00.501Z,12.10
2023-05-10T13:29:00.139Z,12.00
2023-05-10T13:30:57.216Z,11.70
2023-05-10T13:34:34.588Z,11.90
2023-05-10T13:36:34.468Z,11.30
2023-05-10T13:38:52.610Z,9.40
2023-05-10T13:42:13.373Z,9.80
2023-05-10T13:44:02.036Z,8.60
2023-05-10T13:49:17.440Z,10.00
2023-05-10T13:52:07.234Z,9.10
2023-05-10T13:54:10.864Z,9.00
2023-05-10T13:57:09.062Z,8.10
2023-05-10T14:01:50.678Z,10.20
2023-05-10T14:03:17.733Z,9.40
2023-05-10T14:08:57.425Z,8.50
2023-05-10T14:17:06.393Z,10.40
2023-05-10T14:25:38.374Z,9.30
2023-05-10T14:27:36.226Z,8.80
2023-05-10T14:31:24.712Z,8.80
2023-05-10T14:33:22.628Z,9.20
2023-05-10T14:34:53.464Z,8.70
2023-05-10T14:38:26.465Z,8.80
2023-05-10T14:41:43.594Z,7.90
2023-05-10T14:45:03.423Z,9.10
2023-05-10T14:46:30.970Z,9.50
2023-05-10T14:49:46.467Z,6.90
2023-05-10T14:53:05.984Z,9.60
2023-05-10T14:55:43.425Z,8.30
2023-05-10T14:57:13.010Z,7.20
2023-05-10T14:58:44.811Z,5.50
2023-05-10T15:00:13.885Z,6.60
2023-05-10T15:01:13.160Z,5.50
2023-05-10T15:02:13.166Z,6.00
2023-05-10T15:03:42.224Z,10.10
2023-05-10T15:06:00.680Z,5.20
2023-05-10T15:07:58.758Z,7.90
2023-05-10T15:10:27.022Z,6.70
2023-05-10T15:14:21.060Z,5.20
2023-05-10T15:20:53.068Z,4.70
2023-05-10T15:25:17.703Z,3.80
2023-05-10T15:27:16.091Z,4.90
2023-05-10T15:29:35.120Z,5.70
2023-05-10T15:31:35.728Z,5.90
2023-05-10T15:33:05.634Z,5.30
2023-05-10T15:34:55.742Z,5.40
2023-05-10T15:40:13.234Z,6.70
2023-05-10T15:42:48.180Z,4.90
2023-05-10T15:45:37.349Z,5.50
2023-05-10T15:52:46.553Z,6.10
2023-05-10T15:55:37.429Z,6.80
2023-05-10T16:01:02.183Z,5.90
2023-05-10T16:08:47.637Z,6.20
2023-05-10T16:12:32.724Z,6.00
2023-05-10T16:15:02.654Z,6.10
2023-05-10T16:17:21.101Z,7.40
2023-05-10T16:18:50.118Z,6.40
2023-05-10T16:24:28.540Z,6.20
2023-05-10T16:25:55.228Z,7.00
2023-05-10T16:27:25.034Z,6.80
2023-05-10T16:28:56.883Z,6.50
2023-05-10T16:33:58.623Z,6.40
2023-05-10T16:35:54.688Z,7.40
2023-05-10T16:37:24.631Z,7.30
2023-05-10T16:38:54.540Z,7.80
2023-05-10T16:41:12.268Z,11.50
2023-05-10T16:43:40.032Z,8.40
2023-05-10T16:46:58.189Z,5.80
2023-05-10T16:51:24.834Z,8.40
2023-05-10T16:53:24.557Z,6.00
2023-05-10T16:54:52.860Z,7.10
2023-05-10T16:56:24.025Z,5.60
2023-05-10T16:58:42.383Z,7.80
2023-05-10T17:00:34.026Z,6.70
2023-05-10T17:02:01.058Z,7.50
2023-05-10T17:04:29.801Z,5.50
2023-05-10T17:11:02.410Z,5.10
2023-05-10T17:14:27.139Z,5.60
2023-05-10T17:16:30.289Z,6.00
2023-05-10T17:27:33.070Z,10.10
2023-05-10T17:29:33.078Z,6.20
2023-05-10T17:31:51.527Z,7.30
2023-05-10T17:33:22.122Z,6.10
2023-05-10T17:36:02.712Z,7.20
2023-05-10T17:38:40.188Z,9.20
2023-05-10T17:40:41.709Z,7.20
2023-05-10T17:43:57.418Z,7.10
2023-05-10T17:50:51.668Z,7.20
2023-05-10T17:52:53.035Z,9.40
2023-05-10T17:54:40.199Z,8.70
2023-05-10T17:55:49.085Z,9.30
2023-05-10T17:57:54.019Z,11.20
2023-05-10T17:59:23.418Z,8.70
2023-05-10T18:00:56.685Z,9.10
2023-05-10T18:02:27.113Z,8.60
2023-05-10T18:04:48.573Z,9.20
2023-05-10T18:06:39.323Z,8.20
2023-05-10T18:09:11.280Z,8.60
2023-05-10T18:15:59.778Z,7.80
2023-05-10T18:17:49.566Z,7.70
2023-05-10T18:20:11.187Z,8.50
2023-05-10T18:21:42.089Z,7.90
2023-05-10T18:24:00.744Z,6.80
2023-05-10T18:27:31.772Z,11.90
2023-05-10T18:29:29.703Z,8.00
2023-05-10T18:33:13.255Z,7.60
2023-05-10T18:34:40.538Z,7.30
2023-05-10T18:37:58.454Z,8.40
2023-05-10T18:39:25.372Z,8.40
2023-05-10T18:40:54.484Z,8.20
2023-05-10T18:42:26.302Z,9.10
2023-05-10T18:43:54.638Z,8.90
2023-05-10T18:45:23.135Z,7.90
2023-05-10T18:47:23.020Z,7.60
2023-05-10T18:48:50.781Z,9.80
2023-05-10T18:50:19.207Z,7.90
2023-05-10T18:51:19.188Z,8.70
2023-05-10T18:52:19.171Z,8.50
2023-05-10T18:54:47.262Z,9.90
2023-05-10T18:56:45.442Z,8.80
2023-05-10T18:59:15.216Z,8.50
2023-05-10T19:03:51.558Z,20.30
2023-05-10T19:06:49.200Z,13.70
2023-05-10T19:08:40.848Z,13.00
2023-05-10T19:11:54.634Z,9.40
2023-05-10T19:13:53.450Z,9.30
2023-05-10T19:15:23.990Z,9.70
2023-05-10T19:17:24.535Z,11.60
2023-05-10T19:21:39.099Z,10.60
2023-05-10T19:26:41.582Z,10.50
2023-05-10T19:28:10.904Z,10.00
2023-05-10T19:30:41.226Z,11.70
2023-05-10T19:32:42.198Z,12.20
2023-05-10T19:34:43.078Z,10.20
2023-05-10T19:38:01.224Z,12.30
2023-05-10T19:40:53.442Z,12.40
2023-05-10T19:47:02.430Z,14.20
2023-05-10T19:49:01.498Z,13.70
2023-05-10T19:50:33.356Z,15.20
2023-05-10T19:52:00.576Z,12.60
2023-05-10T19:54:34.288Z,16.40
2023-05-10T19:56:51.480Z,14.00
2023-05-10T19:59:39.723Z,13.00
2023-05-10T20:01:10.490Z,13.30
2023-05-10T20:04:57.552Z,12.60
2023-05-10T20:07:17.285Z,12.10
2023-05-10T20:10:50.253Z,13.00
2023-05-10T20:13:40.403Z,16.00
2023-05-10T20:18:20.523Z,11.80
2023-05-10T20:20:19.081Z,13.70
2023-05-10T20:21:49.510Z,11.40
2023-05-10T20:22:48.723Z,13.90
2023-05-10T20:23:48.686Z,13.40
2023-05-10T20:24:48.686Z,11.70
2023-05-10T20:32:51.806Z,15.40
2023-05-10T20:34:20.712Z,12.60
2023-05-10T20:37:08.319Z,12.40
2023-05-10T20:42:34.482Z,12.20
2023-05-10T20:45:39.845Z,12.70
2023-05-10T20:48:00.930Z,14.60
2023-05-10T20:50:07.893Z,11.70
2023-05-10T20:53:35.914Z,15.00
2023-05-10T20:55:03.607Z,16.50
2023-05-10T20:56:54.582Z,12.50
2023-05-10T20:59:14.516Z,14.30
2023-05-10T21:00:43.976Z,17.40
2023-05-10T21:02:32.637Z,17.00
2023-05-10T21:04:02.599Z,17.60
2023-05-10T21:05:34.520Z,19.40
2023-05-10T21:09:16.648Z,18.00
2023-05-10T21:10:14.561Z,19.60
2023-05-10T21:11:15.260Z,20.00
2023-05-10T21:12:14.493Z,18.60
2023-05-10T21:13:45.674Z,19.00
2023-05-10T21:16:47.252Z,20.20
2023-05-10T21:18:19.093Z,17.70
2023-05-10T21:21:20.245Z,18.00
2023-05-10T21:23:48.153Z,20.80
2023-05-10T21:25:18.565Z,19.30
2023-05-10T21:26:47.983Z,22.00
2023-05-10T21:29:07.555Z,20.30
2023-05-10T21:31:10.479Z,18.70
2023-05-10T21:34:44.481Z,20.10
2023-05-10T21:38:29.567Z,21.70
2023-05-10T21:43:55.189Z,19.00
2023-05-10T21:46:22.805Z,20.20
2023-05-10T21:47:51.854Z,19.50
2023-05-10T21:49:20.976Z,21.10
2023-05-10T21:54:54.067Z,19.30
2023-05-10T21:58:20.033Z,17.80
2023-05-10T22:00:28.913Z,20.70
2023-05-10T22:02:27.211Z,20.30
2023-05-10T22:05:28.291Z,19.90
2023-05-10T22:06:57.718Z,21.30
2023-05-10T22:09:26.421Z,23.30
2023-05-10T22:11:25.621Z,19.60
2023-05-10T22:13:59.460Z,22.40
2023-05-10T22:15:09.356Z,16.60
2023-05-10T22:16:00.419Z,16.90
2023-05-10T22:19:59.189Z,17.40
2023-05-10T22:22:30.140Z,18.00
2023-05-10T22:26:51.373Z,19.50
2023-05-10T22:28:52.518Z,18.50
2023-05-10T22:31:14.236Z,20.80
2023-05-10T22:32:42.162Z,20.40
2023-05-10T22:35:10.231Z,17.60
2023-05-10T22:36:41.085Z,18.40
2023-05-10T22:48:20.897Z,19.60
2023-05-10T22:49:51.768Z,19.10
2023-05-10T22:52:56.256Z,16.60
2023-05-10T22:55:21.418Z,17.40
2023-05-10T23:00:28.363Z,18.70
2023-05-10T23:07:04.430Z,19.50
2023-05-10T23:10:25.813Z,17.10
2023-05-10T23:13:40.431Z,19.50
2023-05-10T23:15:42.280Z,17.30
2023-05-10T23:20:29.189Z,17.30
2023-05-10T23:22:25.070Z,19.00
2023-05-10T23:33:35.868Z,18.40
2023-05-10T23:36:34.749Z,19.30
2023-05-10T23:38:05.578Z,18.80
2023-05-10T23:41:58.783Z,21.10
2023-05-10T23:44:19.307Z,22.00
2023-05-10T23:47:43.157Z,21.60
2023-05-10T23:49:12.952Z,20.00
2023-05-10T23:50:40.928Z,19.90
2023-05-10T23:52:10.877Z,24.20
2023-05-10T23:54:08.720Z,24.30
2023-05-10T23:56:07.480Z,17.40
2023-05-10T23:57:56.232Z,21.50
